createdAt,value
2018-03-25T00:00:52.956Z,966.16
2018-03-25T00:01:52.870Z,966.18
2018-03-25T00:02:52.788Z,966.10
2018-03-25T00:03:52.704Z,966.10
2018-03-25T00:04:52.620Z,966.11
2018-03-25T00:05:52.537Z,966.06
2018-03-25T00:06:52.455Z,966.09
2018-03-25T00:07:52.368Z,966.06
2018-03-25T00:08:52.286Z,966.07
2018-03-25T00:09:52.199Z,966.07
2018-03-25T00:10:52.123Z,966.07
2018-03-25T00:11:52.035Z,966.08
2018-03-25T00:12:51.956Z,966.08
2018-03-25T00:13:51.864Z,966.08
2018-03-25T00:14:51.780Z,966.08
2018-03-25T00:15:51.701Z,966.10
2018-03-25T00:16:51.616Z,966.11
2018-03-25T00:17:51.531Z,966.07
2018-03-25T00:18:51.445Z,966.09
2018-03-25T00:19:51.362Z,966.05
2018-03-25T00:20:51.278Z,966.05
2018-03-25T00:21:51.195Z,966.07
2018-03-25T00:22:51.110Z,966.09
2018-03-25T00:23:51.028Z,966.08
2018-03-25T00:24:50.942Z,966.11
2018-03-25T00:25:50.858Z,966.11
2018-03-25T00:26:50.774Z,966.09
2018-03-25T00:27:50.693Z,966.13
2018-03-25T00:28:50.612Z,966.12
2018-03-25T00:29:50.523Z,966.13
2018-03-25T00:30:50.437Z,966.16
2018-03-25T00:31:50.357Z,966.12
2018-03-25T00:32:50.280Z,966.17
2018-03-25T00:33:50.209Z,966.18
2018-03-25T00:34:50.117Z,966.19
2018-03-25T00:35:50.022Z,966.17
2018-03-25T00:36:49.938Z,966.20
2018-03-25T00:37:49.852Z,966.16
2018-03-25T00:38:49.767Z,966.20
2018-03-25T00:39:49.685Z,966.19
2018-03-25T00:40:49.600Z,966.19
2018-03-25T00:41:49.517Z,966.19
2018-03-25T00:42:49.432Z,966.13
2018-03-25T00:43:49.352Z,966.16
2018-03-25T00:44:49.277Z,966.16
2018-03-25T00:45:49.179Z,966.18
2018-03-25T00:46:49.099Z,966.18
2018-03-25T00:47:49.021Z,966.18
2018-03-25T00:48:48.929Z,966.23
2018-03-25T00:49:48.846Z,966.22
2018-03-25T00:50:48.761Z,966.19
2018-03-25T00:51:48.679Z,966.21
2018-03-25T00:52:48.617Z,966.24
2018-03-25T00:53:48.515Z,966.22
2018-03-25T00:54:48.423Z,966.23
2018-03-25T00:55:48.346Z,966.27
2018-03-25T00:56:48.257Z,966.22
2018-03-25T00:57:48.172Z,966.26
2018-03-25T00:58:48.088Z,966.26
2018-03-25T00:59:48.007Z,966.29
2018-03-25T01:00:48.676Z,966.24
2018-03-25T01:01:47.837Z,966.25
2018-03-25T01:02:47.762Z,966.24
2018-03-25T01:03:48.207Z,966.24
2018-03-25T01:04:47.586Z,966.23
2018-03-25T01:05:47.501Z,966.22
2018-03-25T01:06:47.418Z,966.23
2018-03-25T01:07:47.332Z,966.23
2018-03-25T01:08:47.250Z,966.18
2018-03-25T01:09:47.161Z,966.25
2018-03-25T01:10:47.079Z,966.21
2018-03-25T01:11:46.996Z,966.21
2018-03-25T01:12:46.912Z,966.20
2018-03-25T01:13:46.825Z,966.22
2018-03-25T01:14:46.741Z,966.23
2018-03-25T01:15:46.671Z,966.22
2018-03-25T01:16:46.572Z,966.24
2018-03-25T01:17:46.493Z,966.24
2018-03-25T01:18:46.405Z,966.21
2018-03-25T01:19:46.321Z,966.25
2018-03-25T01:20:46.239Z,966.26
2018-03-25T01:21:46.164Z,966.24
2018-03-25T01:22:46.083Z,966.27
2018-03-25T01:23:45.982Z,966.25
2018-03-25T01:24:45.897Z,966.27
2018-03-25T01:25:45.812Z,966.25
2018-03-25T01:26:45.730Z,966.28
2018-03-25T01:27:45.648Z,966.21
2018-03-25T01:28:45.561Z,966.21
2018-03-25T01:29:45.480Z,966.23
2018-03-25T01:30:45.393Z,966.20
2018-03-25T01:31:45.309Z,966.17
2018-03-25T01:32:45.235Z,966.18
2018-03-25T01:33:45.139Z,966.18
2018-03-25T01:34:45.054Z,966.21
2018-03-25T01:35:44.970Z,966.22
2018-03-25T01:36:44.885Z,966.20
2018-03-25T01:37:44.802Z,966.24
2018-03-25T01:38:44.721Z,966.19
2018-03-25T01:39:44.635Z,966.20
2018-03-25T01:40:44.551Z,966.23
2018-03-25T01:41:44.478Z,966.20
2018-03-25T01:42:44.429Z,966.24
2018-03-25T01:43:44.294Z,966.22
2018-03-25T01:44:44.211Z,966.28
2018-03-25T01:45:44.126Z,966.27
2018-03-25T01:46:44.041Z,966.28
2018-03-25T01:47:43.964Z,966.29
2018-03-25T01:48:43.872Z,966.30
2018-03-25T01:49:43.788Z,966.32
2018-03-25T01:50:43.706Z,966.35
2018-03-25T01:51:43.617Z,966.31
2018-03-25T01:52:43.537Z,966.29
2018-03-25T01:53:43.449Z,966.33
2018-03-25T01:54:43.369Z,966.29
2018-03-25T01:55:43.277Z,966.29
2018-03-25T01:56:43.195Z,966.30
2018-03-25T01:57:43.109Z,966.28
2018-03-25T01:58:43.027Z,966.25
2018-03-25T01:59:42.940Z,966.21
2018-03-25T02:00:42.858Z,966.25
2018-03-25T02:01:42.772Z,966.21
2018-03-25T02:02:42.688Z,966.20
2018-03-25T02:03:42.605Z,966.23
2018-03-25T02:04:42.520Z,966.23
2018-03-25T02:05:42.431Z,966.26
2018-03-25T02:06:42.349Z,966.25
2018-03-25T02:07:42.267Z,966.26
2018-03-25T02:08:42.180Z,966.29
2018-03-25T02:09:42.095Z,966.31
2018-03-25T02:10:42.011Z,966.32
2018-03-25T02:11:41.938Z,966.32
2018-03-25T02:12:41.841Z,966.31
2018-03-25T02:13:41.763Z,966.29
2018-03-25T02:14:41.671Z,966.29
2018-03-25T02:15:41.589Z,966.36
2018-03-25T02:16:41.503Z,966.36
2018-03-25T02:17:41.417Z,966.34
2018-03-25T02:18:41.333Z,966.31
2018-03-25T02:19:41.249Z,966.35
2018-03-25T02:20:41.165Z,966.39
2018-03-25T02:21:41.083Z,966.39
2018-03-25T02:22:40.996Z,966.34
2018-03-25T02:23:40.916Z,966.35
2018-03-25T02:24:40.835Z,966.34
2018-03-25T02:25:40.741Z,966.39
2018-03-25T02:26:40.659Z,966.40
2018-03-25T02:27:40.572Z,966.37
2018-03-25T02:28:40.511Z,966.34
2018-03-25T02:29:40.405Z,966.40
2018-03-25T02:30:40.318Z,966.38
2018-03-25T02:31:40.231Z,966.38
2018-03-25T02:32:40.147Z,966.37
2018-03-25T02:33:40.076Z,966.38
2018-03-25T02:34:39.990Z,966.39
2018-03-25T02:35:39.894Z,966.40
2018-03-25T02:36:39.820Z,966.40
2018-03-25T02:37:39.730Z,966.39
2018-03-25T02:38:39.645Z,966.44
2018-03-25T02:39:39.554Z,966.39
2018-03-25T02:40:39.468Z,966.41
2018-03-25T02:41:39.383Z,966.42
2018-03-25T02:42:39.300Z,966.47
2018-03-25T02:43:39.218Z,966.45
2018-03-25T02:44:39.128Z,966.51
2018-03-25T02:45:39.057Z,966.54
2018-03-25T02:46:38.972Z,966.55
2018-03-25T02:47:38.876Z,966.55
2018-03-25T02:48:38.809Z,966.55
2018-03-25T02:49:38.705Z,966.60
2018-03-25T02:50:38.625Z,966.57
2018-03-25T02:51:38.539Z,966.54
2018-03-25T02:52:38.457Z,966.58
2018-03-25T02:53:38.369Z,966.59
2018-03-25T02:54:38.280Z,966.57
2018-03-25T02:55:38.194Z,966.59
2018-03-25T02:56:38.110Z,966.56
2018-03-25T02:57:38.024Z,966.61
2018-03-25T02:58:37.939Z,966.60
2018-03-25T02:59:37.853Z,966.59
2018-03-25T03:00:37.776Z,966.61
2018-03-25T03:01:39.118Z,966.60
2018-03-25T03:02:37.625Z,966.63
2018-03-25T03:03:37.529Z,966.61
2018-03-25T03:04:37.441Z,966.68
2018-03-25T03:05:37.344Z,966.67
2018-03-25T03:06:37.263Z,966.70
2018-03-25T03:07:37.175Z,966.69
2018-03-25T03:08:37.108Z,966.70
2018-03-25T03:09:37.006Z,966.69
2018-03-25T03:10:36.919Z,966.69
2018-03-25T03:11:36.834Z,966.67
2018-03-25T03:12:36.747Z,966.68
2018-03-25T03:13:36.668Z,966.71
2018-03-25T03:14:36.577Z,966.72
2018-03-25T03:15:36.495Z,966.77
2018-03-25T03:16:36.409Z,966.75
2018-03-25T03:17:36.325Z,966.77
2018-03-25T03:18:36.242Z,966.83
2018-03-25T03:19:36.156Z,966.81
2018-03-25T03:20:36.073Z,966.84
2018-03-25T03:21:35.987Z,966.82
2018-03-25T03:22:35.898Z,966.82
2018-03-25T03:23:35.812Z,966.82
2018-03-25T03:24:35.730Z,966.80
2018-03-25T03:25:35.643Z,966.84
2018-03-25T03:26:35.559Z,966.82
2018-03-25T03:27:35.470Z,966.81
2018-03-25T03:28:35.387Z,966.82
2018-03-25T03:29:35.299Z,966.80
2018-03-25T03:30:35.217Z,966.80
2018-03-25T03:31:35.208Z,966.80
2018-03-25T03:32:35.046Z,966.80
2018-03-25T03:33:34.961Z,966.83
2018-03-25T03:34:34.878Z,966.84
2018-03-25T03:35:34.789Z,966.84
2018-03-25T03:36:34.704Z,966.85
2018-03-25T03:37:34.624Z,966.87
2018-03-25T03:38:34.536Z,966.89
2018-03-25T03:39:34.447Z,966.85
2018-03-25T03:40:34.361Z,966.88
2018-03-25T03:41:34.284Z,966.89
2018-03-25T03:42:34.201Z,966.89
2018-03-25T03:43:34.108Z,966.89
2018-03-25T03:44:34.021Z,966.88
2018-03-25T03:45:33.935Z,966.83
2018-03-25T03:46:33.850Z,966.88
2018-03-25T03:47:33.766Z,966.87
2018-03-25T03:48:33.680Z,966.89
2018-03-25T03:49:33.599Z,966.85
2018-03-25T03:50:33.510Z,966.92
2018-03-25T03:51:33.426Z,966.92
2018-03-25T03:52:33.342Z,966.91
2018-03-25T03:53:33.259Z,966.94
2018-03-25T03:54:33.169Z,966.89
2018-03-25T03:55:33.082Z,966.90
2018-03-25T03:56:32.998Z,966.94
2018-03-25T03:57:32.912Z,966.91
2018-03-25T03:58:32.828Z,966.89
2018-03-25T03:59:32.741Z,966.94
2018-03-25T04:00:32.657Z,966.93
2018-03-25T04:01:32.597Z,966.93
2018-03-25T04:02:32.484Z,966.93
2018-03-25T04:03:32.436Z,966.96
2018-03-25T04:04:32.315Z,966.97
2018-03-25T04:05:32.232Z,967.01
2018-03-25T04:06:32.143Z,966.99
2018-03-25T04:07:32.058Z,967.02
2018-03-25T04:09:31.906Z,967.00
2018-03-25T04:10:31.821Z,967.01
2018-03-25T04:11:31.771Z,966.99
2018-03-25T04:12:31.628Z,967.01
2018-03-25T04:13:31.544Z,966.97
2018-03-25T04:14:31.468Z,967.03
2018-03-25T04:15:31.372Z,966.99
2018-03-25T04:16:31.432Z,967.01
2018-03-25T04:17:31.218Z,967.05
2018-03-25T04:18:31.116Z,967.06
2018-03-25T04:19:31.031Z,967.07
2018-03-25T04:20:30.943Z,967.02
2018-03-25T04:21:30.861Z,967.05
2018-03-25T04:22:30.776Z,967.05
2018-03-25T04:23:30.690Z,967.07
2018-03-25T04:24:30.611Z,967.06
2018-03-25T04:25:30.518Z,967.06
2018-03-25T04:26:30.439Z,967.10
2018-03-25T04:27:30.370Z,967.09
2018-03-25T04:28:30.268Z,967.05
2018-03-25T04:29:30.176Z,967.11
2018-03-25T04:30:30.102Z,967.08
2018-03-25T04:31:30.009Z,967.10
2018-03-25T04:32:29.921Z,967.14
2018-03-25T04:33:29.832Z,967.12
2018-03-25T04:34:29.769Z,967.13
2018-03-25T04:35:29.661Z,967.14
2018-03-25T04:36:29.576Z,967.16
2018-03-25T04:37:29.490Z,967.17
2018-03-25T04:38:29.407Z,967.18
2018-03-25T04:39:29.332Z,967.24
2018-03-25T04:40:29.237Z,967.22
2018-03-25T04:41:29.151Z,967.21
2018-03-25T04:42:29.062Z,967.21
2018-03-25T04:43:28.977Z,967.19
2018-03-25T04:44:28.947Z,967.15
2018-03-25T04:45:28.822Z,967.11
2018-03-25T04:46:28.717Z,967.12
2018-03-25T04:47:28.633Z,967.11
2018-03-25T04:48:28.592Z,967.12
2018-03-25T04:49:28.462Z,967.12
2018-03-25T04:50:28.378Z,967.13
2018-03-25T04:51:28.301Z,967.15
2018-03-25T04:52:28.209Z,967.16
2018-03-25T04:53:28.119Z,967.17
2018-03-25T04:54:28.035Z,967.21
2018-03-25T04:55:27.964Z,967.21
2018-03-25T04:56:27.862Z,967.16
2018-03-25T04:57:27.778Z,967.18
2018-03-25T04:58:27.690Z,967.17
2018-03-25T04:59:27.607Z,967.17
2018-03-25T05:00:27.524Z,967.20
2018-03-25T05:01:27.437Z,967.19
2018-03-25T05:02:27.348Z,967.20
2018-03-25T05:03:27.262Z,967.22
2018-03-25T05:04:27.177Z,967.20
2018-03-25T05:05:27.092Z,967.20
2018-03-25T05:06:27.006Z,967.18
2018-03-25T05:07:26.921Z,967.16
2018-03-25T05:08:26.838Z,967.23
2018-03-25T05:09:26.748Z,967.21
2018-03-25T05:10:26.661Z,967.16
2018-03-25T05:11:26.579Z,967.17
2018-03-25T05:12:26.498Z,967.17
2018-03-25T05:13:26.406Z,967.16
2018-03-25T05:14:26.319Z,967.13
2018-03-25T05:15:26.239Z,967.13
2018-03-25T05:16:26.150Z,967.12
2018-03-25T05:17:26.062Z,967.11
2018-03-25T05:18:25.976Z,967.14
2018-03-25T05:19:25.892Z,967.11
2018-03-25T05:20:25.806Z,967.14
2018-03-25T05:21:25.717Z,967.12
2018-03-25T05:22:25.637Z,967.13
2018-03-25T05:23:25.549Z,967.12
2018-03-25T05:24:25.476Z,967.09
2018-03-25T05:25:25.380Z,967.09
2018-03-25T05:26:25.292Z,967.10
2018-03-25T05:27:25.207Z,967.15
2018-03-25T05:28:25.121Z,967.13
2018-03-25T05:29:25.035Z,967.15
2018-03-25T05:30:24.949Z,967.13
2018-03-25T05:31:24.868Z,967.14
2018-03-25T05:32:24.786Z,967.13
2018-03-25T05:33:24.690Z,967.17
2018-03-25T05:34:24.609Z,967.21
2018-03-25T05:35:24.521Z,967.22
2018-03-25T05:36:24.435Z,967.26
2018-03-25T05:37:24.348Z,967.26
2018-03-25T05:38:24.268Z,967.23
2018-03-25T05:39:24.183Z,967.28
2018-03-25T05:40:24.092Z,967.25
2018-03-25T05:41:24.010Z,967.29
2018-03-25T05:42:23.920Z,967.27
2018-03-25T05:43:23.837Z,967.27
2018-03-25T05:44:23.749Z,967.28
2018-03-25T05:45:23.841Z,967.30
2018-03-25T05:46:23.578Z,967.32
2018-03-25T05:47:23.494Z,967.30
2018-03-25T05:48:23.413Z,967.31
2018-03-25T05:49:23.319Z,967.33
2018-03-25T05:50:23.236Z,967.34
2018-03-25T05:51:23.148Z,967.31
2018-03-25T05:52:23.078Z,967.36
2018-03-25T05:53:22.975Z,967.39
2018-03-25T05:54:22.894Z,967.38
2018-03-25T05:55:22.817Z,967.41
2018-03-25T05:56:22.722Z,967.39
2018-03-25T05:57:22.637Z,967.45
2018-03-25T05:58:22.549Z,967.44
2018-03-25T05:59:22.463Z,967.47
2018-03-25T06:00:22.423Z,967.48
2018-03-25T06:01:22.304Z,967.47
2018-03-25T06:02:22.208Z,967.47
2018-03-25T06:03:22.120Z,967.48
2018-03-25T06:04:22.035Z,967.49
2018-03-25T06:05:21.950Z,967.45
2018-03-25T06:06:21.862Z,967.47
2018-03-25T06:07:21.779Z,967.52
2018-03-25T06:08:21.692Z,967.54
2018-03-25T06:09:21.608Z,967.53
2018-03-25T06:10:21.522Z,967.53
2018-03-25T06:11:21.437Z,967.56
2018-03-25T06:12:21.349Z,967.56
2018-03-25T06:13:21.268Z,967.59
2018-03-25T06:14:21.183Z,967.64
2018-03-25T06:15:21.094Z,967.59
2018-03-25T06:16:21.008Z,967.63
2018-03-25T06:17:20.922Z,967.58
2018-03-25T06:18:20.838Z,967.60
2018-03-25T06:19:20.760Z,967.63
2018-03-25T06:20:20.701Z,967.59
2018-03-25T06:21:20.662Z,967.61
2018-03-25T06:22:20.498Z,967.65
2018-03-25T06:23:20.432Z,967.67
2018-03-25T06:24:20.326Z,967.66
2018-03-25T06:25:20.242Z,967.67
2018-03-25T06:26:20.155Z,967.69
2018-03-25T06:27:20.071Z,967.70
2018-03-25T06:28:19.986Z,967.71
2018-03-25T06:29:19.899Z,967.71
2018-03-25T06:30:19.815Z,967.70
2018-03-25T06:31:19.744Z,967.71
2018-03-25T06:32:19.646Z,967.71
2018-03-25T06:33:19.571Z,967.75
2018-03-25T06:34:19.511Z,967.77
2018-03-25T06:35:19.393Z,967.77
2018-03-25T06:36:19.304Z,967.77
2018-03-25T06:37:19.219Z,967.77
2018-03-25T06:38:19.749Z,967.76
2018-03-25T06:39:19.050Z,967.79
2018-03-25T06:40:18.964Z,967.80
2018-03-25T06:41:18.892Z,967.79
2018-03-25T06:42:18.812Z,967.79
2018-03-25T06:43:18.714Z,967.85
2018-03-25T06:44:18.635Z,967.82
2018-03-25T06:45:18.543Z,967.82
2018-03-25T06:46:18.456Z,967.83
2018-03-25T06:47:18.374Z,967.83
2018-03-25T06:48:18.316Z,967.88
2018-03-25T06:49:18.214Z,967.90
2018-03-25T06:50:18.116Z,967.93
2018-03-25T06:51:18.082Z,967.93
2018-03-25T06:52:17.950Z,967.94
2018-03-25T06:53:17.872Z,967.96
2018-03-25T06:54:17.777Z,967.98
2018-03-25T06:55:17.695Z,967.96
2018-03-25T06:56:17.609Z,968.01
2018-03-25T06:57:17.528Z,968.04
2018-03-25T06:58:17.439Z,968.07
2018-03-25T06:59:17.355Z,968.05
2018-03-25T07:00:17.277Z,968.05
2018-03-25T07:01:17.189Z,968.08
2018-03-25T07:02:17.104Z,968.10
2018-03-25T07:03:17.020Z,968.08
2018-03-25T07:04:16.936Z,968.09
2018-03-25T07:05:16.849Z,968.14
2018-03-25T07:06:16.764Z,968.13
2018-03-25T07:07:16.684Z,968.16
2018-03-25T07:08:16.598Z,968.13
2018-03-25T07:09:16.514Z,968.17
2018-03-25T07:10:16.429Z,968.17
2018-03-25T07:11:16.344Z,968.11
2018-03-25T07:12:16.302Z,968.13
2018-03-25T07:13:16.173Z,968.19
2018-03-25T07:14:16.091Z,968.17
2018-03-25T07:15:16.012Z,968.19
2018-03-25T07:16:15.923Z,968.18
2018-03-25T07:17:15.840Z,968.16
2018-03-25T07:18:15.754Z,968.19
2018-03-25T07:19:15.671Z,968.18
2018-03-25T07:20:15.591Z,968.18
2018-03-25T07:21:15.503Z,968.20
2018-03-25T07:22:15.445Z,968.21
2018-03-25T07:23:15.334Z,968.22
2018-03-25T07:24:15.252Z,968.27
2018-03-25T07:25:15.275Z,968.23
2018-03-25T07:26:15.084Z,968.30
2018-03-25T07:27:15.002Z,968.29
2018-03-25T07:28:14.919Z,968.30
2018-03-25T07:29:14.834Z,968.32
2018-03-25T07:30:14.806Z,968.32
2018-03-25T07:31:14.691Z,968.37
2018-03-25T07:32:14.592Z,968.35
2018-03-25T07:33:14.508Z,968.36
2018-03-25T07:34:14.416Z,968.32
2018-03-25T07:35:14.330Z,968.32
2018-03-25T07:36:14.263Z,968.35
2018-03-25T07:37:14.166Z,968.39
2018-03-25T07:38:14.081Z,968.38
2018-03-25T07:39:13.996Z,968.38
2018-03-25T07:40:13.915Z,968.42
2018-03-25T07:41:13.828Z,968.43
2018-03-25T07:42:13.747Z,968.42
2018-03-25T07:43:13.663Z,968.44
2018-03-25T07:44:13.582Z,968.43
2018-03-25T07:45:13.496Z,968.43
2018-03-25T07:46:13.429Z,968.45
2018-03-25T07:47:13.334Z,968.48
2018-03-25T07:48:13.249Z,968.50
2018-03-25T07:49:13.161Z,968.49
2018-03-25T07:50:13.078Z,968.51
2018-03-25T07:51:13.022Z,968.51
2018-03-25T07:52:12.913Z,968.52
2018-03-25T07:53:12.831Z,968.56
2018-03-25T07:54:12.745Z,968.56
2018-03-25T07:55:12.663Z,968.58
2018-03-25T07:56:12.580Z,968.57
2018-03-25T07:57:12.498Z,968.60
2018-03-25T07:58:12.413Z,968.61
2018-03-25T07:59:12.331Z,968.57
2018-03-25T08:00:12.250Z,968.61
2018-03-25T08:01:12.174Z,968.57
2018-03-25T08:02:12.095Z,968.60
2018-03-25T08:03:11.999Z,968.61
2018-03-25T08:04:11.917Z,968.63
2018-03-25T08:05:11.835Z,968.58
2018-03-25T08:06:12.680Z,968.61
2018-03-25T08:07:11.669Z,968.58
2018-03-25T08:08:11.585Z,968.58
2018-03-25T08:09:11.513Z,968.67
2018-03-25T08:10:11.419Z,968.63
2018-03-25T08:11:11.340Z,968.62
2018-03-25T08:12:11.256Z,968.65
2018-03-25T08:13:11.171Z,968.63
2018-03-25T08:14:11.088Z,968.62
2018-03-25T08:15:11.005Z,968.61
2018-03-25T08:16:10.958Z,968.61
2018-03-25T08:17:10.860Z,968.66
2018-03-25T08:18:10.757Z,968.64
2018-03-25T08:19:10.697Z,968.66
2018-03-25T08:20:10.595Z,968.65
2018-03-25T08:21:10.516Z,968.66
2018-03-25T08:22:10.432Z,968.67
2018-03-25T08:23:10.343Z,968.68
2018-03-25T08:24:10.262Z,968.71
2018-03-25T08:25:10.179Z,968.71
2018-03-25T08:26:10.097Z,968.71
2018-03-25T08:27:10.018Z,968.72
2018-03-25T08:28:09.935Z,968.72
2018-03-25T08:29:09.856Z,968.71
2018-03-25T08:30:09.766Z,968.73
2018-03-25T08:31:09.881Z,968.72
2018-03-25T08:32:09.604Z,968.77
2018-03-25T08:33:09.519Z,968.76
2018-03-25T08:34:09.437Z,968.68
2018-03-25T08:35:09.364Z,968.71
2018-03-25T08:36:09.311Z,968.76
2018-03-25T08:37:09.192Z,968.75
2018-03-25T08:38:09.127Z,968.72
2018-03-25T08:39:09.026Z,968.72
2018-03-25T08:40:08.944Z,968.74
2018-03-25T08:41:08.863Z,968.75
2018-03-25T08:42:08.781Z,968.76
2018-03-25T08:43:08.708Z,968.74
2018-03-25T08:44:08.618Z,968.75
2018-03-25T08:45:08.537Z,968.78
2018-03-25T08:46:08.453Z,968.75
2018-03-25T08:47:08.369Z,968.75
2018-03-25T08:48:08.287Z,968.72
2018-03-25T08:49:08.268Z,968.73
2018-03-25T08:50:08.125Z,968.74
2018-03-25T08:51:08.044Z,968.72
2018-03-25T08:52:07.961Z,968.75
2018-03-25T08:53:07.876Z,968.78
2018-03-25T08:54:07.797Z,968.77
2018-03-25T08:55:07.722Z,968.76
2018-03-25T08:56:07.634Z,968.74
2018-03-25T08:57:07.553Z,968.73
2018-03-25T08:58:07.473Z,968.74
2018-03-25T08:59:07.394Z,968.74
2018-03-25T09:00:07.305Z,968.72
2018-03-25T09:01:07.223Z,968.74
2018-03-25T09:02:07.142Z,968.75
2018-03-25T09:03:07.072Z,968.74
2018-03-25T09:04:08.894Z,968.78
2018-03-25T09:05:06.901Z,968.77
2018-03-25T09:06:06.817Z,968.78
2018-03-25T09:07:06.771Z,968.79
2018-03-25T09:08:06.712Z,968.79
2018-03-25T09:09:06.618Z,968.81
2018-03-25T09:10:06.487Z,968.82
2018-03-25T09:11:06.407Z,968.85
2018-03-25T09:12:06.325Z,968.84
2018-03-25T09:13:06.290Z,968.87
2018-03-25T09:14:06.164Z,968.85
2018-03-25T09:15:06.081Z,968.84
2018-03-25T09:16:06.129Z,968.85
2018-03-25T09:17:05.918Z,968.81
2018-03-25T09:18:05.835Z,968.83
2018-03-25T09:19:05.754Z,968.80
2018-03-25T09:20:05.753Z,968.83
2018-03-25T09:21:05.599Z,968.78
2018-03-25T09:22:05.537Z,968.82
2018-03-25T09:23:05.430Z,968.77
2018-03-25T09:24:05.348Z,968.77
2018-03-25T09:25:05.266Z,968.80
2018-03-25T09:26:05.202Z,968.79
2018-03-25T09:27:05.109Z,968.81
2018-03-25T09:28:05.022Z,968.82
2018-03-25T09:29:04.941Z,968.79
2018-03-25T09:30:04.859Z,968.82
2018-03-25T09:31:04.779Z,968.81
2018-03-25T09:32:04.702Z,968.78
2018-03-25T09:33:04.614Z,968.81
2018-03-25T09:34:04.550Z,968.83
2018-03-25T09:35:04.529Z,968.83
2018-03-25T09:36:04.458Z,968.80
2018-03-25T09:37:04.291Z,968.78
2018-03-25T09:38:04.223Z,968.79
2018-03-25T09:39:04.133Z,968.78
2018-03-25T09:40:04.050Z,968.77
2018-03-25T09:41:04.301Z,968.77
2018-03-25T09:42:03.919Z,968.75
2018-03-25T09:43:03.807Z,968.74
2018-03-25T09:44:03.726Z,968.80
2018-03-25T09:45:03.651Z,968.77
2018-03-25T09:46:03.570Z,968.74
2018-03-25T09:47:03.484Z,968.77
2018-03-25T09:48:03.405Z,968.72
2018-03-25T09:49:03.321Z,968.75
2018-03-25T09:50:03.248Z,968.75
2018-03-25T09:51:03.162Z,968.71
2018-03-25T09:52:03.083Z,968.75
2018-03-25T09:53:03.002Z,968.79
2018-03-25T09:54:02.923Z,968.75
2018-03-25T09:55:02.842Z,968.76
2018-03-25T09:56:02.762Z,968.76
2018-03-25T09:57:02.684Z,968.79
2018-03-25T09:58:02.601Z,968.75
2018-03-25T09:59:02.526Z,968.79
2018-03-25T10:00:02.442Z,968.84
2018-03-25T10:01:02.361Z,968.84
2018-03-25T10:02:02.282Z,968.80
2018-03-25T10:03:02.253Z,968.84
2018-03-25T10:04:02.124Z,968.82
2018-03-25T10:05:02.042Z,968.84
2018-03-25T10:06:01.966Z,968.82
2018-03-25T10:07:01.884Z,968.80
2018-03-25T10:08:01.805Z,968.78
2018-03-25T10:09:01.728Z,968.80
2018-03-25T10:10:01.646Z,968.82
2018-03-25T10:11:01.567Z,968.80
2018-03-25T10:12:01.501Z,968.82
2018-03-25T10:13:01.408Z,968.81
2018-03-25T10:14:01.328Z,968.77
2018-03-25T10:15:01.247Z,968.82
2018-03-25T10:16:01.169Z,968.81
2018-03-25T10:17:01.117Z,968.83
2018-03-25T10:18:01.011Z,968.83
2018-03-25T10:19:00.932Z,968.81
2018-03-25T10:20:00.856Z,968.83
2018-03-25T10:21:00.780Z,968.80
2018-03-25T10:22:00.696Z,968.84
2018-03-25T10:23:00.625Z,968.84
2018-03-25T10:24:00.542Z,968.81
2018-03-25T10:25:00.475Z,968.79
2018-03-25T10:26:00.389Z,968.79
2018-03-25T10:27:00.309Z,968.78
2018-03-25T10:28:00.222Z,968.77
2018-03-25T10:29:00.146Z,968.80
2018-03-25T10:30:00.066Z,968.83
2018-03-25T10:30:59.984Z,968.78
2018-03-25T10:31:59.907Z,968.78
2018-03-25T10:32:59.833Z,968.75
2018-03-25T10:33:59.750Z,968.75
2018-03-25T10:34:59.674Z,968.77
2018-03-25T10:35:59.596Z,968.74
2018-03-25T10:36:59.526Z,968.72
2018-03-25T10:37:59.436Z,968.74
2018-03-25T10:38:59.362Z,968.77
2018-03-25T10:39:59.282Z,968.73
2018-03-25T10:40:59.201Z,968.73
2018-03-25T10:41:59.127Z,968.78
2018-03-25T10:42:59.051Z,968.71
2018-03-25T10:43:58.967Z,968.74
2018-03-25T10:44:58.889Z,968.75
2018-03-25T10:45:58.811Z,968.77
2018-03-25T10:46:58.732Z,968.76
2018-03-25T10:47:58.658Z,968.77
2018-03-25T10:48:58.579Z,968.80
2018-03-25T10:49:58.502Z,968.78
2018-03-25T10:50:58.422Z,968.81
2018-03-25T10:51:58.346Z,968.78
2018-03-25T10:52:58.263Z,968.82
2018-03-25T10:53:58.188Z,968.79
2018-03-25T10:54:58.111Z,968.81
2018-03-25T10:55:58.032Z,968.78
2018-03-25T10:56:57.953Z,968.78
2018-03-25T10:57:57.876Z,968.80
2018-03-25T10:58:57.797Z,968.80
2018-03-25T10:59:57.728Z,968.82
2018-03-25T11:00:57.640Z,968.84
2018-03-25T11:01:57.648Z,968.86
2018-03-25T11:02:57.483Z,968.80
2018-03-25T11:03:57.405Z,968.78
2018-03-25T11:04:57.339Z,968.81
2018-03-25T11:05:57.249Z,968.80
2018-03-25T11:06:57.172Z,968.81
2018-03-25T11:07:57.095Z,968.78
2018-03-25T11:08:57.070Z,968.79
2018-03-25T11:09:56.938Z,968.79
2018-03-25T11:10:56.859Z,968.83
2018-03-25T11:11:56.784Z,968.81
2018-03-25T11:12:56.752Z,968.84
2018-03-25T11:13:56.626Z,968.83
2018-03-25T11:14:56.549Z,968.83
2018-03-25T11:15:56.531Z,968.81
2018-03-25T11:16:56.394Z,968.82
2018-03-25T11:17:56.317Z,968.81
2018-03-25T11:18:56.263Z,968.83
2018-03-25T11:19:56.178Z,968.85
2018-03-25T11:20:56.119Z,968.84
2018-03-25T11:21:56.011Z,968.81
2018-03-25T11:22:55.958Z,968.81
2018-03-25T11:23:55.855Z,968.80
2018-03-25T11:24:55.780Z,968.83
2018-03-25T11:25:55.704Z,968.80
2018-03-25T11:26:55.671Z,968.82
2018-03-25T11:27:55.549Z,968.81
2018-03-25T11:28:55.490Z,968.81
2018-03-25T11:29:55.423Z,968.84
2018-03-25T11:30:55.320Z,968.83
2018-03-25T11:31:55.284Z,968.81
2018-03-25T11:32:55.194Z,968.82
2018-03-25T11:33:55.093Z,968.80
2018-03-25T11:34:55.018Z,968.84
2018-03-25T11:35:54.942Z,968.84
2018-03-25T11:36:54.865Z,968.85
2018-03-25T11:37:54.789Z,968.83
2018-03-25T11:38:54.716Z,968.79
2018-03-25T11:39:54.639Z,968.85
2018-03-25T11:40:54.563Z,968.88
2018-03-25T11:41:54.489Z,968.90
2018-03-25T11:42:54.421Z,968.91
2018-03-25T11:43:54.339Z,968.98
2018-03-25T11:44:54.266Z,968.94
2018-03-25T11:45:54.228Z,968.95
2018-03-25T11:46:54.121Z,968.99
2018-03-25T11:47:54.045Z,969.03
2018-03-25T11:48:53.977Z,969.06
2018-03-25T11:49:53.901Z,969.07
2018-03-25T11:50:53.831Z,969.05
2018-03-25T11:51:53.764Z,969.04
2018-03-25T11:52:53.691Z,969.05
2018-03-25T11:53:53.622Z,969.04
2018-03-25T11:54:53.556Z,969.11
2018-03-25T11:55:53.488Z,969.10
2018-03-25T11:56:53.419Z,969.02
2018-03-25T11:57:53.354Z,969.08
2018-03-25T11:58:53.286Z,969.02
2018-03-25T11:59:53.226Z,969.01
2018-03-25T12:00:53.158Z,969.02
2018-03-25T12:01:53.099Z,969.01
2018-03-25T12:02:53.031Z,969.02
2018-03-25T12:03:52.969Z,969.03
2018-03-25T12:04:52.901Z,968.99
2018-03-25T12:05:52.837Z,968.99
2018-03-25T12:06:52.774Z,968.95
2018-03-25T12:07:52.711Z,968.98
2018-03-25T12:08:52.652Z,968.94
2018-03-25T12:09:52.587Z,968.97
2018-03-25T12:10:52.526Z,968.97
2018-03-25T12:11:52.466Z,968.98
2018-03-25T12:12:52.413Z,968.97
2018-03-25T12:13:52.344Z,968.98
2018-03-25T12:14:52.283Z,968.98
2018-03-25T12:15:52.226Z,968.98
2018-03-25T12:16:52.162Z,968.98
2018-03-25T12:17:52.099Z,968.97
2018-03-25T12:18:52.083Z,969.04
2018-03-25T12:19:51.981Z,968.99
2018-03-25T12:20:51.977Z,968.98
2018-03-25T12:21:51.863Z,969.00
2018-03-25T12:22:51.805Z,968.98
2018-03-25T12:23:51.750Z,968.97
2018-03-25T12:24:51.683Z,968.96
2018-03-25T12:25:51.626Z,968.94
2018-03-25T12:26:51.567Z,968.93
2018-03-25T12:27:51.510Z,968.95
2018-03-25T12:28:51.449Z,968.96